createdAt,value
2022-12-15T00:02:01.905Z,100.00
2022-12-15T00:07:22.951Z,99.92
2022-12-15T00:12:43.810Z,99.99
2022-12-15T00:18:04.597Z,100.00
2022-12-15T00:23:28.754Z,100.00
2022-12-15T00:28:54.309Z,100.00
2022-12-15T00:34:15.081Z,100.00
2022-12-15T00:39:17.398Z,100.00
2022-12-15T00:44:21.005Z,100.00
2022-12-15T00:49:43.832Z,100.00
2022-12-15T00:55:04.639Z,100.00
2022-12-15T01:00:26.241Z,100.00
2022-12-15T01:05:47.207Z,100.00
2022-12-15T01:11:07.820Z,100.00
2022-12-15T01:16:31.936Z,100.00
2022-12-15T01:21:34.063Z,100.00
2022-12-15T01:26:36.245Z,100.00
2022-12-15T01:31:38.373Z,100.00
2022-12-15T01:36:41.019Z,100.00
2022-12-15T01:41:43.654Z,100.00
2022-12-15T01:46:48.386Z,100.00
2022-12-15T01:51:56.108Z,100.00
2022-12-15T01:57:05.808Z,100.00
2022-12-15T02:02:41.696Z,100.00
2022-12-15T02:07:44.140Z,100.00
2022-12-15T02:12:52.278Z,100.00
2022-12-15T02:18:02.569Z,100.00
2022-12-15T02:23:30.138Z,100.00
2022-12-15T02:28:54.637Z,100.00
2022-12-15T02:34:06.031Z,100.00
2022-12-15T02:39:08.251Z,100.00
2022-12-15T02:44:12.801Z,100.00
2022-12-15T02:49:26.390Z,100.00
2022-12-15T02:54:35.114Z,100.00
2022-12-15T02:59:45.273Z,100.00
2022-12-15T03:04:47.918Z,100.00
2022-12-15T03:09:49.821Z,100.00
2022-12-15T03:14:51.816Z,100.00
2022-12-15T03:19:53.893Z,100.00
2022-12-15T03:24:55.966Z,100.00
2022-12-15T03:29:58.023Z,100.00
2022-12-15T03:35:00.686Z,100.00
2022-12-15T03:40:03.040Z,100.00
2022-12-15T03:45:05.818Z,100.00
2022-12-15T03:50:14.013Z,100.00
2022-12-15T03:55:16.788Z,100.00
2022-12-15T04:00:20.272Z,100.00
2022-12-15T04:05:29.200Z,100.00
2022-12-15T04:10:34.730Z,100.00
2022-12-15T04:15:38.484Z,100.00
2022-12-15T04:20:40.757Z,100.00
2022-12-15T04:26:01.540Z,100.00
2022-12-15T04:32:01.194Z,100.00
2022-12-15T04:37:22.949Z,100.00
2022-12-15T04:42:44.244Z,100.00
2022-12-15T04:48:04.789Z,100.00
2022-12-15T04:53:33.881Z,100.00
2022-12-15T04:58:54.690Z,100.00
2022-12-15T05:04:15.358Z,100.00
2022-12-15T05:09:36.131Z,100.00
2022-12-15T05:14:57.170Z,100.00
2022-12-15T05:20:17.984Z,100.00
2022-12-15T05:25:41.336Z,100.00
2022-12-15T05:31:02.292Z,100.00
2022-12-15T05:36:04.764Z,100.00
2022-12-15T05:41:08.281Z,100.00
2022-12-15T05:46:15.720Z,100.00
2022-12-15T05:51:18.270Z,100.00
2022-12-15T05:56:20.363Z,100.00
2022-12-15T06:01:22.736Z,100.00
2022-12-15T06:06:24.951Z,100.00
2022-12-15T06:11:27.123Z,100.00
2022-12-15T06:16:29.431Z,100.00
2022-12-15T06:21:37.409Z,100.00
2022-12-15T06:26:39.890Z,100.00
2022-12-15T06:31:42.321Z,100.00
2022-12-15T06:36:44.719Z,100.00
2022-12-15T06:41:47.120Z,100.00
2022-12-15T06:46:49.331Z,100.00
2022-12-15T06:51:54.613Z,100.00
2022-12-15T06:56:57.942Z,100.00
2022-12-15T07:02:00.588Z,100.00
2022-12-15T07:07:04.066Z,100.00
2022-12-15T07:12:07.278Z,100.00
2022-12-15T07:17:12.728Z,100.00
2022-12-15T07:22:14.848Z,100.00
2022-12-15T07:27:17.704Z,100.00
2022-12-15T07:32:20.504Z,100.00
2022-12-15T07:37:24.422Z,100.00
2022-12-15T07:42:34.072Z,100.00
2022-12-15T07:47:39.503Z,100.00
2022-12-15T07:52:42.833Z,100.00
2022-12-15T07:57:47.643Z,100.00
2022-12-15T08:02:50.765Z,99.95
2022-12-15T08:07:52.966Z,99.98
2022-12-15T08:12:55.644Z,100.00
2022-12-15T08:17:59.468Z,99.81
2022-12-15T08:23:11.762Z,99.15
2022-12-15T08:28:19.296Z,98.82
2022-12-15T08:33:27.809Z,98.34
2022-12-15T08:44:09.857Z,98.37
2022-12-15T08:49:21.519Z,97.46
2022-12-15T08:54:33.907Z,97.01
2022-12-15T08:59:36.455Z,96.77
2022-12-15T09:04:42.112Z,96.72
2022-12-15T09:10:03.882Z,97.41
2022-12-15T09:17:10.207Z,97.67
2022-12-15T09:26:50.030Z,96.00
2022-12-15T09:32:36.569Z,95.29
2022-12-15T09:38:15.229Z,94.68
2022-12-15T09:43:36.435Z,95.09
2022-12-15T09:48:47.762Z,94.61
2022-12-15T09:53:56.543Z,93.88
2022-12-15T09:59:36.697Z,94.12
2022-12-15T10:06:06.062Z,94.89
2022-12-15T10:11:05.544Z,94.83
2022-12-15T10:16:16.653Z,94.90
2022-12-15T10:21:27.196Z,94.75
2022-12-15T10:26:55.911Z,94.98
2022-12-15T10:32:18.520Z,94.82
2022-12-15T10:42:59.812Z,94.04
2022-12-15T10:48:39.366Z,93.22
2022-12-15T10:54:13.308Z,92.78
2022-12-15T10:59:33.869Z,93.00
2022-12-15T11:05:05.980Z,93.13
2022-12-15T11:10:55.424Z,93.23
2022-12-15T11:23:02.717Z,93.86
2022-12-15T11:28:27.230Z,93.47
2022-12-15T11:33:53.353Z,93.37
2022-12-15T11:39:13.086Z,93.35
2022-12-15T11:45:11.152Z,93.25
2022-12-15T11:50:53.865Z,92.81
2022-12-15T11:56:03.700Z,92.74
2022-12-15T12:01:35.179Z,92.41
2022-12-15T12:07:07.845Z,91.87
2022-12-15T12:18:34.016Z,91.85
2022-12-15T12:24:02.914Z,91.92
2022-12-15T12:29:53.038Z,91.51
2022-12-15T12:36:11.753Z,91.24
2022-12-15T12:41:46.959Z,91.27
2022-12-15T12:47:06.062Z,91.53
2022-12-15T12:52:39.564Z,91.26
2022-12-15T12:57:57.859Z,91.00
2022-12-15T13:03:33.575Z,90.96
2022-12-15T13:20:54.196Z,90.30
2022-12-15T13:26:17.641Z,89.83
2022-12-15T13:37:59.910Z,89.15
2022-12-15T13:49:33.708Z,88.83
2022-12-15T13:55:11.857Z,89.46
2022-12-15T14:00:40.375Z,89.38
2022-12-15T14:06:25.122Z,88.71
2022-12-15T14:11:52.589Z,88.54
2022-12-15T14:18:04.296Z,88.95
2022-12-15T14:41:03.262Z,89.04
2022-12-15T14:46:53.004Z,89.18
2022-12-15T14:52:53.693Z,89.00
2022-12-15T14:58:00.989Z,88.76
2022-12-15T15:03:19.993Z,89.03
2022-12-15T15:08:36.260Z,89.59
2022-12-15T15:13:41.379Z,89.40
2022-12-15T15:19:06.624Z,89.48
2022-12-15T15:24:18.425Z,89.86
2022-12-15T15:29:39.783Z,90.24
2022-12-15T15:34:45.230Z,90.56
2022-12-15T15:39:50.440Z,90.62
2022-12-15T15:44:53.847Z,90.72
2022-12-15T15:50:00.358Z,91.06
2022-12-15T15:55:04.262Z,90.92
2022-12-15T16:00:18.900Z,91.52
2022-12-15T16:05:22.749Z,91.90
2022-12-15T16:10:26.758Z,92.24
2022-12-15T16:15:35.521Z,92.23
2022-12-15T16:20:40.297Z,92.11
2022-12-15T16:25:54.729Z,92.30
2022-12-15T16:31:04.190Z,92.33
2022-12-15T16:36:16.310Z,92.21
2022-12-15T16:47:11.764Z,91.95
2022-12-15T16:52:43.772Z,91.89
2022-12-15T17:04:24.004Z,92.12
2022-12-15T17:09:40.340Z,92.59
2022-12-15T17:14:45.589Z,93.00
2022-12-15T17:20:27.872Z,92.72
2022-12-15T17:26:18.493Z,93.04
2022-12-15T17:31:27.798Z,93.55
2022-12-15T17:36:41.466Z,93.92
2022-12-15T17:42:00.027Z,93.74
2022-12-15T17:47:12.723Z,93.87
2022-12-15T17:52:26.665Z,93.83
2022-12-15T17:57:42.015Z,94.29
2022-12-15T18:03:05.341Z,94.66
2022-12-15T18:08:48.698Z,94.59
2022-12-15T18:13:59.312Z,94.52
2022-12-15T18:19:02.928Z,94.41
2022-12-15T18:24:14.219Z,94.06
2022-12-15T18:29:18.562Z,94.37
2022-12-15T18:34:23.742Z,94.41
2022-12-15T18:39:36.725Z,94.60
2022-12-15T18:44:40.324Z,94.79
2022-12-15T18:49:45.232Z,94.67
2022-12-15T18:54:53.932Z,94.53
2022-12-15T19:00:20.435Z,94.44
2022-12-15T19:05:35.985Z,94.12
2022-12-15T19:10:49.599Z,94.24
2022-12-15T19:15:57.963Z,94.28
2022-12-15T19:28:00.163Z,94.92
2022-12-15T19:33:36.746Z,94.85
2022-12-15T19:39:08.058Z,95.14
2022-12-15T19:45:35.035Z,95.37
2022-12-15T19:51:06.435Z,95.52
2022-12-15T19:56:25.635Z,95.56
2022-12-15T20:01:39.640Z,95.75
2022-12-15T20:06:50.795Z,95.85
2022-12-15T20:11:56.926Z,95.84
2022-12-15T20:17:06.305Z,95.62
2022-12-15T20:22:20.173Z,95.53
2022-12-15T20:27:36.221Z,95.77
2022-12-15T20:32:40.773Z,95.43
2022-12-15T20:37:45.579Z,95.50
2022-12-15T20:42:52.063Z,95.64
2022-12-15T20:48:04.696Z,95.83
2022-12-15T20:53:24.477Z,95.88
2022-12-15T20:58:33.416Z,95.77
2022-12-15T21:03:44.286Z,95.73
2022-12-15T21:08:55.977Z,95.89
2022-12-15T21:14:05.931Z,96.08
2022-12-15T21:19:20.181Z,96.25
2022-12-15T21:24:26.732Z,96.14
2022-12-15T21:29:32.094Z,96.30
2022-12-15T21:34:38.809Z,96.21
2022-12-15T21:39:42.344Z,96.48
2022-12-15T21:44:45.629Z,96.45
2022-12-15T21:49:48.917Z,96.62
2022-12-15T21:54:56.198Z,96.64
2022-12-15T22:00:03.139Z,96.54
2022-12-15T22:05:41.007Z,96.68
2022-12-15T22:11:07.644Z,96.63
2022-12-15T22:16:34.756Z,96.71
2022-12-15T22:21:50.230Z,96.78
2022-12-15T22:27:02.505Z,96.70
2022-12-15T22:32:22.680Z,96.75
2022-12-15T22:37:32.952Z,97.04
2022-12-15T22:42:47.205Z,97.20
2022-12-15T22:53:38.694Z,97.30
2022-12-15T22:58:58.624Z,97.21
2022-12-15T23:04:21.425Z,97.19
2022-12-15T23:10:17.117Z,97.28
2022-12-15T23:15:46.827Z,97.43
2022-12-15T23:21:10.036Z,97.63
2022-12-15T23:26:17.456Z,97.52
2022-12-15T23:31:38.891Z,97.73
2022-12-15T23:36:52.660Z,97.81
2022-12-15T23:41:58.894Z,97.80
2022-12-15T23:47:02.478Z,97.86
2022-12-15T23:52:08.515Z,97.84
2022-12-15T23:57:17.557Z,97.91
